sensor_id;sensor_type;location;lat;lon;timestamp;P1;durP1;ratioP1;P2;durP2;ratioP2
7929;SDS011;4010;42.698;23.124;2022-12-20T00:02:24;12.10;;;5.50;;
7929;SDS011;4010;42.698;23.124;2022-12-20T00:04:51;10.18;;;5.72;;
7929;SDS011;4010;42.698;23.124;2022-12-20T00:07:17;12.95;;;5.47;;
7929;SDS011;4010;42.698;23.124;2022-12-20T00:09:44;9.45;;;5.20;;
7929;SDS011;4010;42.698;23.124;2022-12-20T00:12:12;8.15;;;4.72;;
7929;SDS011;4010;42.698;23.124;2022-12-20T00:14:39;11.30;;;6.30;;
7929;SDS011;4010;42.698;23.124;2022-12-20T00:17:06;7.32;;;4.50;;
7929;SDS011;4010;42.698;23.124;2022-12-20T00:19:32;10.13;;;5.45;;
7929;SDS011;4010;42.698;23.124;2022-12-20T00:21:59;7.45;;;4.72;;
7929;SDS011;4010;42.698;23.124;2022-12-20T00:24:26;8.23;;;4.53;;
7929;SDS011;4010;42.698;23.124;2022-12-20T00:26:52;8.90;;;5.50;;
7929;SDS011;4010;42.698;23.124;2022-12-20T00:29:21;6.03;;;4.35;;
7929;SDS011;4010;42.698;23.124;2022-12-20T00:31:47;9.77;;;4.35;;
7929;SDS011;4010;42.698;23.124;2022-12-20T00:34:14;9.57;;;5.35;;
7929;SDS011;4010;42.698;23.124;2022-12-20T00:36:41;7.47;;;4.93;;
7929;SDS011;4010;42.698;23.124;2022-12-20T00:39:08;10.18;;;5.93;;
7929;SDS011;4010;42.698;23.124;2022-12-20T00:41:35;6.75;;;3.95;;
7929;SDS011;4010;42.698;23.124;2022-12-20T00:44:02;11.75;;;5.88;;
7929;SDS011;4010;42.698;23.124;2022-12-20T00:46:31;8.15;;;5.03;;
7929;SDS011;4010;42.698;23.124;2022-12-20T00:48:59;11.32;;;5.15;;
7929;SDS011;4010;42.698;23.124;2022-12-20T00:51:27;7.32;;;4.75;;
7929;SDS011;4010;42.698;23.124;2022-12-20T00:53:55;8.95;;;5.28;;
7929;SDS011;4010;42.698;23.124;2022-12-20T00:56:22;14.82;;;5.70;;
7929;SDS011;4010;42.698;23.124;2022-12-20T00:58:49;9.52;;;5.28;;
7929;SDS011;4010;42.698;23.124;2022-12-20T01:01:18;9.27;;;5.85;;
7929;SDS011;4010;42.698;23.124;2022-12-20T01:03:49;9.52;;;5.80;;
7929;SDS011;4010;42.698;23.124;2022-12-20T01:06:16;9.25;;;6.07;;
7929;SDS011;4010;42.698;23.124;2022-12-20T01:08:44;10.77;;;4.90;;
7929;SDS011;4010;42.698;23.124;2022-12-20T01:11:12;8.52;;;6.00;;
7929;SDS011;4010;42.698;23.124;2022-12-20T01:13:46;11.85;;;6.13;;
7929;SDS011;4010;42.698;23.124;2022-12-20T01:16:15;9.20;;;5.80;;
7929;SDS011;4010;42.698;23.124;2022-12-20T01:18:43;13.00;;;6.95;;
7929;SDS011;4010;42.698;23.124;2022-12-20T01:21:12;11.77;;;6.60;;
7929;SDS011;4010;42.698;23.124;2022-12-20T01:23:41;8.00;;;5.18;;
7929;SDS011;4010;42.698;23.124;2022-12-20T01:26:10;9.85;;;6.53;;
7929;SDS011;4010;42.698;23.124;2022-12-20T01:28:39;8.85;;;5.40;;
7929;SDS011;4010;42.698;23.124;2022-12-20T01:31:09;9.48;;;6.00;;
7929;SDS011;4010;42.698;23.124;2022-12-20T01:33:37;8.25;;;5.95;;
7929;SDS011;4010;42.698;23.124;2022-12-20T01:36:05;13.70;;;7.57;;
7929;SDS011;4010;42.698;23.124;2022-12-20T01:38:35;11.80;;;6.80;;
7929;SDS011;4010;42.698;23.124;2022-12-20T01:41:02;13.13;;;6.90;;
7929;SDS011;4010;42.698;23.124;2022-12-20T01:43:43;9.23;;;5.38;;
7929;SDS011;4010;42.698;23.124;2022-12-20T01:46:13;10.45;;;6.32;;
7929;SDS011;4010;42.698;23.124;2022-12-20T01:48:40;10.65;;;6.40;;
7929;SDS011;4010;42.698;23.124;2022-12-20T01:51:09;12.35;;;6.05;;
7929;SDS011;4010;42.698;23.124;2022-12-20T01:53:38;12.85;;;6.35;;
7929;SDS011;4010;42.698;23.124;2022-12-20T01:56:05;12.77;;;7.00;;
7929;SDS011;4010;42.698;23.124;2022-12-20T01:58:33;12.13;;;7.18;;
7929;SDS011;4010;42.698;23.124;2022-12-20T02:01:02;9.57;;;6.30;;
7929;SDS011;4010;42.698;23.124;2022-12-20T02:03:29;10.82;;;7.00;;
7929;SDS011;4010;42.698;23.124;2022-12-20T02:05:57;14.93;;;6.93;;
7929;SDS011;4010;42.698;23.124;2022-12-20T02:08:41;12.05;;;7.22;;
7929;SDS011;4010;42.698;23.124;2022-12-20T02:11:12;16.23;;;9.88;;
7929;SDS011;4010;42.698;23.124;2022-12-20T02:13:48;16.90;;;10.15;;
7929;SDS011;4010;42.698;23.124;2022-12-20T02:16:27;17.20;;;10.48;;
7929;SDS011;4010;42.698;23.124;2022-12-20T02:18:57;17.73;;;9.50;;
7929;SDS011;4010;42.698;23.124;2022-12-20T02:21:32;16.17;;;9.65;;
7929;SDS011;4010;42.698;23.124;2022-12-20T02:24:14;13.70;;;7.85;;
7929;SDS011;4010;42.698;23.124;2022-12-20T02:30:06;12.80;;;6.70;;
7929;SDS011;4010;42.698;23.124;2022-12-20T02:32:37;10.48;;;7.03;;
7929;SDS011;4010;42.698;23.124;2022-12-20T02:35:07;16.63;;;7.82;;
7929;SDS011;4010;42.698;23.124;2022-12-20T02:37:35;14.90;;;7.53;;
7929;SDS011;4010;42.698;23.124;2022-12-20T02:40:11;11.57;;;6.40;;
7929;SDS011;4010;42.698;23.124;2022-12-20T02:42:40;8.55;;;6.18;;
7929;SDS011;4010;42.698;23.124;2022-12-20T02:45:09;12.18;;;6.90;;
7929;SDS011;4010;42.698;23.124;2022-12-20T02:47:41;8.82;;;6.13;;
7929;SDS011;4010;42.698;23.124;2022-12-20T02:50:13;9.55;;;6.40;;
7929;SDS011;4010;42.698;23.124;2022-12-20T02:52:44;9.60;;;6.10;;
7929;SDS011;4010;42.698;23.124;2022-12-20T02:55:11;12.77;;;6.70;;
7929;SDS011;4010;42.698;23.124;2022-12-20T02:57:40;11.90;;;6.38;;
7929;SDS011;4010;42.698;23.124;2022-12-20T03:00:13;11.77;;;7.82;;
7929;SDS011;4010;42.698;23.124;2022-12-20T03:02:42;15.18;;;7.10;;
7929;SDS011;4010;42.698;23.124;2022-12-20T03:05:28;9.68;;;5.95;;
7929;SDS011;4010;42.698;23.124;2022-12-20T03:07:57;13.20;;;6.15;;
7929;SDS011;4010;42.698;23.124;2022-12-20T03:10:24;9.95;;;6.45;;
7929;SDS011;4010;42.698;23.124;2022-12-20T03:12:52;12.52;;;6.82;;
7929;SDS011;4010;42.698;23.124;2022-12-20T03:15:20;13.90;;;6.82;;
7929;SDS011;4010;42.698;23.124;2022-12-20T03:17:47;8.95;;;6.25;;
7929;SDS011;4010;42.698;23.124;2022-12-20T03:20:13;13.25;;;6.85;;
7929;SDS011;4010;42.698;23.124;2022-12-20T03:22:40;10.77;;;6.38;;
7929;SDS011;4010;42.698;23.124;2022-12-20T03:25:07;11.75;;;7.07;;
7929;SDS011;4010;42.698;23.124;2022-12-20T03:27:34;11.13;;;6.03;;
7929;SDS011;4010;42.698;23.124;2022-12-20T03:30:02;13.98;;;7.65;;
7929;SDS011;4010;42.698;23.124;2022-12-20T03:32:30;10.27;;;5.80;;
7929;SDS011;4010;42.698;23.124;2022-12-20T03:34:57;10.45;;;5.75;;
7929;SDS011;4010;42.698;23.124;2022-12-20T03:37:24;9.55;;;5.70;;
7929;SDS011;4010;42.698;23.124;2022-12-20T03:39:51;11.20;;;5.22;;
7929;SDS011;4010;42.698;23.124;2022-12-20T03:42:18;10.57;;;5.95;;
7929;SDS011;4010;42.698;23.124;2022-12-20T03:44:45;9.80;;;5.20;;
7929;SDS011;4010;42.698;23.124;2022-12-20T03:47:11;11.20;;;6.03;;
7929;SDS011;4010;42.698;23.124;2022-12-20T03:49:40;10.68;;;7.03;;
7929;SDS011;4010;42.698;23.124;2022-12-20T03:52:08;8.55;;;5.60;;
7929;SDS011;4010;42.698;23.124;2022-12-20T03:54:35;10.80;;;5.18;;
7929;SDS011;4010;42.698;23.124;2022-12-20T03:57:02;8.35;;;6.28;;
7929;SDS011;4010;42.698;23.124;2022-12-20T03:59:29;10.70;;;5.90;;
7929;SDS011;4010;42.698;23.124;2022-12-20T04:01:56;8.43;;;5.60;;
7929;SDS011;4010;42.698;23.124;2022-12-20T04:04:23;10.55;;;6.35;;
7929;SDS011;4010;42.698;23.124;2022-12-20T04:06:51;10.80;;;6.45;;
7929;SDS011;4010;42.698;23.124;2022-12-20T04:09:18;11.60;;;6.95;;
7929;SDS011;4010;42.698;23.124;2022-12-20T04:11:45;11.57;;;7.10;;
7929;SDS011;4010;42.698;23.124;2022-12-20T04:14:11;11.52;;;7.53;;
7929;SDS011;4010;42.698;23.124;2022-12-20T04:16:38;12.38;;;7.47;;
7929;SDS011;4010;42.698;23.124;2022-12-20T04:19:05;17.85;;;8.10;;
7929;SDS011;4010;42.698;23.124;2022-12-20T04:21:32;14.07;;;7.50;;
7929;SDS011;4010;42.698;23.124;2022-12-20T04:24:01;17.75;;;8.30;;
7929;SDS011;4010;42.698;23.124;2022-12-20T04:26:29;13.73;;;7.75;;
7929;SDS011;4010;42.698;23.124;2022-12-20T04:28:56;15.88;;;7.80;;
7929;SDS011;4010;42.698;23.124;2022-12-20T04:31:23;12.18;;;8.02;;
7929;SDS011;4010;42.698;23.124;2022-12-20T04:33:50;13.38;;;7.15;;
7929;SDS011;4010;42.698;23.124;2022-12-20T04:36:17;15.15;;;7.90;;
7929;SDS011;4010;42.698;23.124;2022-12-20T04:38:44;13.82;;;6.35;;
7929;SDS011;4010;42.698;23.124;2022-12-20T04:41:12;9.30;;;6.28;;
7929;SDS011;4010;42.698;23.124;2022-12-20T04:43:46;8.63;;;6.22;;
7929;SDS011;4010;42.698;23.124;2022-12-20T04:46:14;10.13;;;5.47;;
7929;SDS011;4010;42.698;23.124;2022-12-20T04:48:41;12.63;;;7.05;;
7929;SDS011;4010;42.698;23.124;2022-12-20T04:51:08;11.57;;;6.97;;
7929;SDS011;4010;42.698;23.124;2022-12-20T04:53:34;8.90;;;6.10;;
7929;SDS011;4010;42.698;23.124;2022-12-20T04:56:14;11.60;;;5.78;;
7929;SDS011;4010;42.698;23.124;2022-12-20T04:58:42;10.93;;;6.13;;
7929;SDS011;4010;42.698;23.124;2022-12-20T05:01:10;15.52;;;6.95;;
7929;SDS011;4010;42.698;23.124;2022-12-20T05:03:36;13.07;;;7.25;;
7929;SDS011;4010;42.698;23.124;2022-12-20T05:06:03;17.02;;;8.15;;
7929;SDS011;4010;42.698;23.124;2022-12-20T05:08:31;14.68;;;7.85;;
7929;SDS011;4010;42.698;23.124;2022-12-20T05:10:58;16.13;;;7.95;;
7929;SDS011;4010;42.698;23.124;2022-12-20T05:13:26;16.48;;;8.82;;
7929;SDS011;4010;42.698;23.124;2022-12-20T05:15:53;12.45;;;6.57;;
7929;SDS011;4010;42.698;23.124;2022-12-20T05:18:21;21.30;;;9.48;;
7929;SDS011;4010;42.698;23.124;2022-12-20T05:20:48;14.95;;;7.25;;
7929;SDS011;4010;42.698;23.124;2022-12-20T05:23:36;14.13;;;7.50;;
7929;SDS011;4010;42.698;23.124;2022-12-20T05:26:21;13.55;;;6.65;;
7929;SDS011;4010;42.698;23.124;2022-12-20T05:28:50;12.68;;;6.75;;
7929;SDS011;4010;42.698;23.124;2022-12-20T05:31:17;11.48;;;6.85;;
7929;SDS011;4010;42.698;23.124;2022-12-20T05:33:44;10.95;;;6.72;;
7929;SDS011;4010;42.698;23.124;2022-12-20T05:36:11;14.80;;;8.02;;
7929;SDS011;4010;42.698;23.124;2022-12-20T05:38:38;13.93;;;7.25;;
7929;SDS011;4010;42.698;23.124;2022-12-20T05:41:05;15.07;;;8.25;;
7929;SDS011;4010;42.698;23.124;2022-12-20T05:43:32;37.83;;;16.23;;
7929;SDS011;4010;42.698;23.124;2022-12-20T05:46:01;31.10;;;11.55;;
7929;SDS011;4010;42.698;23.124;2022-12-20T05:48:27;22.77;;;10.07;;
7929;SDS011;4010;42.698;23.124;2022-12-20T05:50:54;18.60;;;10.50;;
7929;SDS011;4010;42.698;23.124;2022-12-20T05:53:21;17.48;;;10.15;;
7929;SDS011;4010;42.698;23.124;2022-12-20T05:55:48;19.10;;;9.40;;
7929;SDS011;4010;42.698;23.124;2022-12-20T05:58:16;19.52;;;10.05;;
7929;SDS011;4010;42.698;23.124;2022-12-20T06:00:44;20.27;;;12.25;;
7929;SDS011;4010;42.698;23.124;2022-12-20T06:03:12;16.10;;;9.63;;
7929;SDS011;4010;42.698;23.124;2022-12-20T06:05:41;13.82;;;7.90;;
7929;SDS011;4010;42.698;23.124;2022-12-20T06:08:09;16.77;;;9.43;;
7929;SDS011;4010;42.698;23.124;2022-12-20T06:10:36;19.55;;;8.70;;
7929;SDS011;4010;42.698;23.124;2022-12-20T06:13:04;20.23;;;10.63;;
7929;SDS011;4010;42.698;23.124;2022-12-20T06:15:31;14.75;;;8.82;;
7929;SDS011;4010;42.698;23.124;2022-12-20T06:17:58;12.18;;;8.77;;
7929;SDS011;4010;42.698;23.124;2022-12-20T06:20:27;15.05;;;8.98;;
7929;SDS011;4010;42.698;23.124;2022-12-20T06:22:54;13.68;;;7.90;;
7929;SDS011;4010;42.698;23.124;2022-12-20T06:25:21;16.23;;;8.82;;
7929;SDS011;4010;42.698;23.124;2022-12-20T06:27:48;13.18;;;7.95;;
7929;SDS011;4010;42.698;23.124;2022-12-20T06:30:15;10.50;;;7.10;;
7929;SDS011;4010;42.698;23.124;2022-12-20T06:32:42;14.85;;;7.90;;
7929;SDS011;4010;42.698;23.124;2022-12-20T06:35:09;9.15;;;6.88;;
7929;SDS011;4010;42.698;23.124;2022-12-20T06:37:37;11.00;;;7.38;;
7929;SDS011;4010;42.698;23.124;2022-12-20T06:40:05;13.57;;;6.90;;
7929;SDS011;4010;42.698;23.124;2022-12-20T06:42:33;14.85;;;7.97;;
7929;SDS011;4010;42.698;23.124;2022-12-20T06:45:00;13.77;;;7.30;;
7929;SDS011;4010;42.698;23.124;2022-12-20T06:47:27;12.55;;;7.43;;
7929;SDS011;4010;42.698;23.124;2022-12-20T06:49:54;11.55;;;6.82;;
7929;SDS011;4010;42.698;23.124;2022-12-20T06:52:20;13.98;;;7.22;;
7929;SDS011;4010;42.698;23.124;2022-12-20T06:54:49;13.98;;;9.15;;
7929;SDS011;4010;42.698;23.124;2022-12-20T06:57:15;19.00;;;10.32;;
7929;SDS011;4010;42.698;23.124;2022-12-20T06:59:43;20.42;;;10.68;;
7929;SDS011;4010;42.698;23.124;2022-12-20T07:02:10;18.85;;;10.18;;
7929;SDS011;4010;42.698;23.124;2022-12-20T07:04:37;18.58;;;10.05;;
7929;SDS011;4010;42.698;23.124;2022-12-20T07:07:04;20.70;;;10.68;;
7929;SDS011;4010;42.698;23.124;2022-12-20T07:09:31;14.90;;;10.13;;
7929;SDS011;4010;42.698;23.124;2022-12-20T07:12:00;13.43;;;9.85;;
7929;SDS011;4010;42.698;23.124;2022-12-20T07:14:26;17.35;;;9.75;;
7929;SDS011;4010;42.698;23.124;2022-12-20T07:16:53;21.15;;;11.48;;
7929;SDS011;4010;42.698;23.124;2022-12-20T07:19:20;25.20;;;11.75;;
7929;SDS011;4010;42.698;23.124;2022-12-20T07:21:47;24.67;;;13.10;;
7929;SDS011;4010;42.698;23.124;2022-12-20T07:24:14;24.40;;;12.20;;
7929;SDS011;4010;42.698;23.124;2022-12-20T07:26:42;32.13;;;18.20;;
7929;SDS011;4010;42.698;23.124;2022-12-20T07:29:11;30.15;;;16.00;;
7929;SDS011;4010;42.698;23.124;2022-12-20T07:31:39;18.05;;;11.00;;
7929;SDS011;4010;42.698;23.124;2022-12-20T07:34:06;16.75;;;9.38;;
7929;SDS011;4010;42.698;23.124;2022-12-20T07:36:32;23.35;;;9.82;;
7929;SDS011;4010;42.698;23.124;2022-12-20T07:38:59;20.60;;;10.98;;
7929;SDS011;4010;42.698;23.124;2022-12-20T07:41:26;31.60;;;14.43;;
7929;SDS011;4010;42.698;23.124;2022-12-20T07:43:52;23.50;;;13.65;;
7929;SDS011;4010;42.698;23.124;2022-12-20T07:46:21;25.95;;;13.38;;
7929;SDS011;4010;42.698;23.124;2022-12-20T07:48:47;28.25;;;13.60;;
7929;SDS011;4010;42.698;23.124;2022-12-20T07:51:15;21.92;;;11.32;;
7929;SDS011;4010;42.698;23.124;2022-12-20T07:53:46;18.75;;;10.15;;
7929;SDS011;4010;42.698;23.124;2022-12-20T07:56:15;13.45;;;7.78;;
7929;SDS011;4010;42.698;23.124;2022-12-20T07:58:46;17.20;;;9.48;;
7929;SDS011;4010;42.698;23.124;2022-12-20T08:01:15;14.10;;;8.00;;
7929;SDS011;4010;42.698;23.124;2022-12-20T08:03:44;16.08;;;9.00;;
7929;SDS011;4010;42.698;23.124;2022-12-20T08:06:14;18.52;;;9.98;;
7929;SDS011;4010;42.698;23.124;2022-12-20T08:08:44;25.10;;;9.18;;
7929;SDS011;4010;42.698;23.124;2022-12-20T08:11:14;16.90;;;9.85;;
7929;SDS011;4010;42.698;23.124;2022-12-20T08:13:42;17.90;;;9.63;;
7929;SDS011;4010;42.698;23.124;2022-12-20T08:16:08;17.90;;;10.52;;
7929;SDS011;4010;42.698;23.124;2022-12-20T08:18:35;17.27;;;10.52;;
7929;SDS011;4010;42.698;23.124;2022-12-20T08:21:03;22.45;;;11.20;;
7929;SDS011;4010;42.698;23.124;2022-12-20T08:23:31;18.63;;;10.75;;
7929;SDS011;4010;42.698;23.124;2022-12-20T08:25:59;19.38;;;11.43;;
7929;SDS011;4010;42.698;23.124;2022-12-20T08:28:26;18.00;;;10.60;;
7929;SDS011;4010;42.698;23.124;2022-12-20T08:30:52;19.42;;;10.77;;
7929;SDS011;4010;42.698;23.124;2022-12-20T08:33:25;19.33;;;11.57;;
7929;SDS011;4010;42.698;23.124;2022-12-20T08:35:55;22.15;;;12.45;;
7929;SDS011;4010;42.698;23.124;2022-12-20T08:38:25;19.13;;;10.32;;
7929;SDS011;4010;42.698;23.124;2022-12-20T08:40:53;16.52;;;9.48;;
7929;SDS011;4010;42.698;23.124;2022-12-20T08:43:20;15.68;;;8.63;;
7929;SDS011;4010;42.698;23.124;2022-12-20T08:45:50;15.38;;;9.15;;
7929;SDS011;4010;42.698;23.124;2022-12-20T08:48:18;13.88;;;8.77;;
7929;SDS011;4010;42.698;23.124;2022-12-20T08:50:45;16.52;;;9.45;;
7929;SDS011;4010;42.698;23.124;2022-12-20T08:53:12;12.88;;;8.35;;
7929;SDS011;4010;42.698;23.124;2022-12-20T08:55:40;13.68;;;7.65;;
7929;SDS011;4010;42.698;23.124;2022-12-20T08:58:07;18.88;;;8.82;;
7929;SDS011;4010;42.698;23.124;2022-12-20T09:00:33;16.27;;;9.48;;
7929;SDS011;4010;42.698;23.124;2022-12-20T09:03:01;15.48;;;9.18;;
7929;SDS011;4010;42.698;23.124;2022-12-20T09:05:28;13.25;;;8.98;;
7929;SDS011;4010;42.698;23.124;2022-12-20T09:07:54;16.98;;;9.15;;
7929;SDS011;4010;42.698;23.124;2022-12-20T09:10:21;14.23;;;9.05;;
7929;SDS011;4010;42.698;23.124;2022-12-20T09:12:49;13.77;;;8.27;;
7929;SDS011;4010;42.698;23.124;2022-12-20T09:15:16;12.65;;;7.60;;
7929;SDS011;4010;42.698;23.124;2022-12-20T09:17:43;11.60;;;8.00;;
7929;SDS011;4010;42.698;23.124;2022-12-20T09:20:11;12.48;;;8.30;;
7929;SDS011;4010;42.698;23.124;2022-12-20T09:22:38;14.60;;;8.00;;
7929;SDS011;4010;42.698;23.124;2022-12-20T09:25:05;14.50;;;8.35;;
7929;SDS011;4010;42.698;23.124;2022-12-20T09:27:33;13.43;;;7.40;;
7929;SDS011;4010;42.698;23.124;2022-12-20T09:30:01;13.80;;;7.55;;
7929;SDS011;4010;42.698;23.124;2022-12-20T09:32:27;14.30;;;7.03;;
7929;SDS011;4010;42.698;23.124;2022-12-20T09:34:54;11.02;;;7.40;;
7929;SDS011;4010;42.698;23.124;2022-12-20T09:37:20;10.52;;;6.50;;
7929;SDS011;4010;42.698;23.124;2022-12-20T09:39:47;17.52;;;8.77;;
7929;SDS011;4010;42.698;23.124;2022-12-20T09:42:15;11.38;;;6.63;;
7929;SDS011;4010;42.698;23.124;2022-12-20T09:44:44;11.98;;;7.05;;
7929;SDS011;4010;42.698;23.124;2022-12-20T09:47:13;11.05;;;7.00;;
7929;SDS011;4010;42.698;23.124;2022-12-20T09:49:44;12.43;;;7.07;;
7929;SDS011;4010;42.698;23.124;2022-12-20T09:52:21;10.88;;;6.47;;
7929;SDS011;4010;42.698;23.124;2022-12-20T09:54:56;13.27;;;6.80;;
7929;SDS011;4010;42.698;23.124;2022-12-20T09:57:36;10.02;;;6.30;;
7929;SDS011;4010;42.698;23.124;2022-12-20T10:00:11;10.93;;;7.35;;
7929;SDS011;4010;42.698;23.124;2022-12-20T10:02:40;15.15;;;6.50;;
7929;SDS011;4010;42.698;23.124;2022-12-20T10:05:10;12.60;;;7.80;;
7929;SDS011;4010;42.698;23.124;2022-12-20T10:07:40;13.75;;;7.50;;
7929;SDS011;4010;42.698;23.124;2022-12-20T10:10:31;12.93;;;7.13;;
7929;SDS011;4010;42.698;23.124;2022-12-20T10:13:15;11.00;;;6.93;;
7929;SDS011;4010;42.698;23.124;2022-12-20T10:15:54;11.17;;;7.47;;
7929;SDS011;4010;42.698;23.124;2022-12-20T10:18:34;10.88;;;7.85;;
7929;SDS011;4010;42.698;23.124;2022-12-20T10:21:20;18.23;;;7.68;;
7929;SDS011;4010;42.698;23.124;2022-12-20T10:24:00;13.83;;;7.03;;
7929;SDS011;4010;42.698;23.124;2022-12-20T10:26:28;10.65;;;6.55;;
7929;SDS011;4010;42.698;23.124;2022-12-20T10:28:57;11.13;;;7.60;;
7929;SDS011;4010;42.698;23.124;2022-12-20T10:31:24;13.07;;;7.23;;
7929;SDS011;4010;42.698;23.124;2022-12-20T10:33:52;10.67;;;6.70;;
7929;SDS011;4010;42.698;23.124;2022-12-20T10:36:20;14.85;;;8.38;;
7929;SDS011;4010;42.698;23.124;2022-12-20T10:38:50;11.48;;;7.18;;
7929;SDS011;4010;42.698;23.124;2022-12-20T10:41:19;8.43;;;6.47;;
7929;SDS011;4010;42.698;23.124;2022-12-20T10:43:48;11.02;;;7.00;;
7929;SDS011;4010;42.698;23.124;2022-12-20T10:46:20;12.75;;;6.70;;
7929;SDS011;4010;42.698;23.124;2022-12-20T10:48:47;15.90;;;7.40;;
7929;SDS011;4010;42.698;23.124;2022-12-20T10:51:17;12.17;;;6.70;;
7929;SDS011;4010;42.698;23.124;2022-12-20T10:53:55;15.67;;;7.30;;
7929;SDS011;4010;42.698;23.124;2022-12-20T10:56:24;13.63;;;7.90;;
7929;SDS011;4010;42.698;23.124;2022-12-20T10:58:54;12.23;;;7.47;;
7929;SDS011;4010;42.698;23.124;2022-12-20T11:01:23;12.23;;;8.00;;
7929;SDS011;4010;42.698;23.124;2022-12-20T11:03:54;13.57;;;7.75;;
7929;SDS011;4010;42.698;23.124;2022-12-20T11:06:25;14.87;;;8.57;;
7929;SDS011;4010;42.698;23.124;2022-12-20T11:11:56;12.60;;;7.33;;
7929;SDS011;4010;42.698;23.124;2022-12-20T11:14:27;10.80;;;7.30;;
7929;SDS011;4010;42.698;23.124;2022-12-20T11:16:55;13.10;;;7.70;;
7929;SDS011;4010;42.698;23.124;2022-12-20T11:19:37;12.17;;;8.63;;
7929;SDS011;4010;42.698;23.124;2022-12-20T11:22:22;12.97;;;7.83;;
7929;SDS011;4010;42.698;23.124;2022-12-20T11:25:03;14.88;;;8.65;;
7929;SDS011;4010;42.698;23.124;2022-12-20T11:27:43;13.85;;;8.20;;
7929;SDS011;4010;42.698;23.124;2022-12-20T11:30:18;12.03;;;7.33;;
7929;SDS011;4010;42.698;23.124;2022-12-20T11:32:53;15.18;;;7.82;;
7929;SDS011;4010;42.698;23.124;2022-12-20T11:35:46;15.47;;;8.47;;
7929;SDS011;4010;42.698;23.124;2022-12-20T11:38:24;12.37;;;7.83;;
7929;SDS011;4010;42.698;23.124;2022-12-20T11:41:06;12.80;;;8.20;;
7929;SDS011;4010;42.698;23.124;2022-12-20T11:43:41;11.20;;;7.77;;
7929;SDS011;4010;42.698;23.124;2022-12-20T11:46:23;16.17;;;9.73;;
7929;SDS011;4010;42.698;23.124;2022-12-20T11:49:04;12.80;;;8.13;;
7929;SDS011;4010;42.698;23.124;2022-12-20T11:51:42;15.50;;;8.63;;
7929;SDS011;4010;42.698;23.124;2022-12-20T11:54:14;16.40;;;8.20;;
7929;SDS011;4010;42.698;23.124;2022-12-20T11:56:47;12.17;;;7.60;;
7929;SDS011;4010;42.698;23.124;2022-12-20T11:59:17;14.90;;;8.53;;
7929;SDS011;4010;42.698;23.124;2022-12-20T12:01:52;11.77;;;7.93;;
7929;SDS011;4010;42.698;23.124;2022-12-20T12:04:29;13.83;;;7.30;;
7929;SDS011;4010;42.698;23.124;2022-12-20T12:07:00;12.70;;;7.83;;
7929;SDS011;4010;42.698;23.124;2022-12-20T12:09:35;13.50;;;7.23;;
7929;SDS011;4010;42.698;23.124;2022-12-20T12:12:07;14.93;;;8.33;;
7929;SDS011;4010;42.698;23.124;2022-12-20T12:14:44;15.70;;;7.87;;
7929;SDS011;4010;42.698;23.124;2022-12-20T12:17:17;13.80;;;7.43;;
7929;SDS011;4010;42.698;23.124;2022-12-20T12:19:51;14.97;;;7.43;;
7929;SDS011;4010;42.698;23.124;2022-12-20T12:22:23;13.60;;;8.27;;
7929;SDS011;4010;42.698;23.124;2022-12-20T12:24:59;15.57;;;7.87;;
7929;SDS011;4010;42.698;23.124;2022-12-20T12:27:29;10.10;;;6.87;;
7929;SDS011;4010;42.698;23.124;2022-12-20T12:29:56;13.00;;;7.97;;
7929;SDS011;4010;42.698;23.124;2022-12-20T12:32:25;14.83;;;8.23;;
7929;SDS011;4010;42.698;23.124;2022-12-20T12:35:02;16.83;;;7.70;;
7929;SDS011;4010;42.698;23.124;2022-12-20T12:40:40;14.00;;;7.30;;
7929;SDS011;4010;42.698;23.124;2022-12-20T12:46:14;9.37;;;6.40;;
7929;SDS011;4010;42.698;23.124;2022-12-20T12:48:44;12.20;;;7.13;;
7929;SDS011;4010;42.698;23.124;2022-12-20T12:51:20;13.33;;;8.00;;
7929;SDS011;4010;42.698;23.124;2022-12-20T12:53:51;10.40;;;6.70;;
7929;SDS011;4010;42.698;23.124;2022-12-20T12:56:34;9.83;;;6.20;;
7929;SDS011;4010;42.698;23.124;2022-12-20T12:59:12;9.90;;;7.03;;
7929;SDS011;4010;42.698;23.124;2022-12-20T13:01:47;15.20;;;7.30;;
7929;SDS011;4010;42.698;23.124;2022-12-20T13:04:21;11.63;;;6.93;;
7929;SDS011;4010;42.698;23.124;2022-12-20T13:07:00;9.33;;;7.00;;
7929;SDS011;4010;42.698;23.124;2022-12-20T13:09:38;11.07;;;6.60;;
7929;SDS011;4010;42.698;23.124;2022-12-20T13:18:25;12.43;;;6.87;;
7929;SDS011;4010;42.698;23.124;2022-12-20T13:23:43;13.20;;;6.20;;
7929;SDS011;4010;42.698;23.124;2022-12-20T13:29:20;10.37;;;6.73;;
7929;SDS011;4010;42.698;23.124;2022-12-20T13:31:51;9.67;;;6.27;;
7929;SDS011;4010;42.698;23.124;2022-12-20T13:39:53;11.27;;;7.20;;
7929;SDS011;4010;42.698;23.124;2022-12-20T13:42:26;10.63;;;7.05;;
7929;SDS011;4010;42.698;23.124;2022-12-20T13:45:00;8.73;;;5.90;;
7929;SDS011;4010;42.698;23.124;2022-12-20T13:47:35;13.70;;;7.27;;
7929;SDS011;4010;42.698;23.124;2022-12-20T13:52:48;10.23;;;6.50;;
7929;SDS011;4010;42.698;23.124;2022-12-20T13:55:22;13.07;;;6.60;;
7929;SDS011;4010;42.698;23.124;2022-12-20T13:57:51;17.03;;;6.70;;
7929;SDS011;4010;42.698;23.124;2022-12-20T14:00:21;12.83;;;6.50;;
7929;SDS011;4010;42.698;23.124;2022-12-20T14:02:51;13.13;;;7.27;;
7929;SDS011;4010;42.698;23.124;2022-12-20T14:05:18;10.50;;;6.83;;
7929;SDS011;4010;42.698;23.124;2022-12-20T14:07:52;15.63;;;6.88;;
7929;SDS011;4010;42.698;23.124;2022-12-20T14:10:24;13.15;;;6.75;;
7929;SDS011;4010;42.698;23.124;2022-12-20T14:12:53;8.23;;;5.97;;
7929;SDS011;4010;42.698;23.124;2022-12-20T14:15:22;12.93;;;6.63;;
7929;SDS011;4010;42.698;23.124;2022-12-20T14:17:51;13.18;;;6.38;;
7929;SDS011;4010;42.698;23.124;2022-12-20T14:20:19;18.23;;;6.53;;
7929;SDS011;4010;42.698;23.124;2022-12-20T14:22:51;10.77;;;6.57;;
7929;SDS011;4010;42.698;23.124;2022-12-20T14:25:25;11.18;;;6.00;;
7929;SDS011;4010;42.698;23.124;2022-12-20T14:27:55;10.55;;;6.10;;
7929;SDS011;4010;42.698;23.124;2022-12-20T14:30:27;11.20;;;5.97;;
7929;SDS011;4010;42.698;23.124;2022-12-20T14:32:58;8.68;;;5.65;;
7929;SDS011;4010;42.698;23.124;2022-12-20T14:35:25;13.43;;;5.65;;
7929;SDS011;4010;42.698;23.124;2022-12-20T14:37:54;28.08;;;12.05;;
7929;SDS011;4010;42.698;23.124;2022-12-20T14:40:22;19.88;;;9.25;;
7929;SDS011;4010;42.698;23.124;2022-12-20T14:42:49;11.50;;;6.85;;
7929;SDS011;4010;42.698;23.124;2022-12-20T14:45:18;13.90;;;8.15;;
7929;SDS011;4010;42.698;23.124;2022-12-20T14:47:48;22.52;;;7.68;;
7929;SDS011;4010;42.698;23.124;2022-12-20T14:50:21;14.15;;;6.68;;
7929;SDS011;4010;42.698;23.124;2022-12-20T14:52:53;11.38;;;7.15;;
7929;SDS011;4010;42.698;23.124;2022-12-20T14:55:20;11.88;;;8.32;;
7929;SDS011;4010;42.698;23.124;2022-12-20T14:57:50;13.95;;;7.35;;
7929;SDS011;4010;42.698;23.124;2022-12-20T15:00:20;16.80;;;10.10;;
7929;SDS011;4010;42.698;23.124;2022-12-20T15:02:50;27.52;;;8.70;;
7929;SDS011;4010;42.698;23.124;2022-12-20T15:05:39;19.35;;;10.18;;
7929;SDS011;4010;42.698;23.124;2022-12-20T15:08:13;17.50;;;9.93;;
7929;SDS011;4010;42.698;23.124;2022-12-20T15:10:46;24.30;;;11.50;;
7929;SDS011;4010;42.698;23.124;2022-12-20T15:13:16;26.15;;;13.15;;
7929;SDS011;4010;42.698;23.124;2022-12-20T15:15:44;29.80;;;15.10;;
7929;SDS011;4010;42.698;23.124;2022-12-20T15:18:11;43.97;;;18.95;;
7929;SDS011;4010;42.698;23.124;2022-12-20T15:20:40;32.35;;;15.63;;
7929;SDS011;4010;42.698;23.124;2022-12-20T15:23:11;32.75;;;14.95;;
7929;SDS011;4010;42.698;23.124;2022-12-20T15:25:40;24.20;;;12.45;;
7929;SDS011;4010;42.698;23.124;2022-12-20T15:28:11;24.90;;;12.98;;
7929;SDS011;4010;42.698;23.124;2022-12-20T15:30:39;33.80;;;16.05;;
7929;SDS011;4010;42.698;23.124;2022-12-20T15:33:07;25.15;;;11.80;;
7929;SDS011;4010;42.698;23.124;2022-12-20T15:35:41;29.75;;;14.20;;
7929;SDS011;4010;42.698;23.124;2022-12-20T15:38:10;27.15;;;12.35;;